Time;durP1;ratioP1;P1;durP2;ratioP2;P2;SDS_P1;SDS_P2;PMS_P1;PMS_P2;Temp;Humidity;BMP_temperature;BMP_pressure;BME280_temperature;BME280_humidity;BME280_pressure;Samples;Min_cycle;Max_cycle;Signal;HPM_P1;HPM_P2
2023/05/09 07:54:39;;;;;;;1999.90;999.90;;;15.10;95.80;;;;;;5052675;27;20459;-67
2023/05/09 07:57:07;;;;;;;1999.90;999.90;;;14.60;96.30;;;;;;5064884;28;20147;-67
2023/05/09 07:59:34;;;;;;;1999.90;999.90;;;14.50;97.00;;;;;;5055355;28;20040;-69
2023/05/09 08:02:02;;;;;;;1999.90;999.90;;;14.40;97.30;;;;;;5060674;28;20024;-68
2023/05/09 08:04:29;;;;;;;1999.90;999.90;;;14.40;97.50;;;;;;5060454;28;20067;-67
2023/05/09 08:06:58;;;;;;;1999.90;999.90;;;14.30;97.50;;;;;;5064845;28;20032;-67
2023/05/09 08:09:25;;;;;;;1999.90;999.90;;;14.30;97.70;;;;;;5062587;28;20040;-67
2023/05/09 08:11:52;;;;;;;1999.90;999.90;;;14.30;98.10;;;;;;5058272;28;20025;-66
2023/05/09 08:14:30;;;;;;;1999.90;999.90;;;14.30;98.30;;;;;;5052781;28;20086;-68
2023/05/09 08:17:01;;;;;;;1999.90;999.90;;;14.30;98.40;;;;;;5050051;28;20029;-68
2023/05/09 08:19:28;;;;;;;1999.90;999.90;;;14.20;98.40;;;;;;5060657;28;20024;-68
2023/05/09 08:21:56;;;;;;;1999.90;999.90;;;14.20;98.40;;;;;;5060686;28;20033;-65
2023/05/09 08:24:24;;;;;;;1999.90;999.90;;;14.10;98.90;;;;;;5061931;28;20020;-65
2023/05/09 08:26:51;;;;;;;1999.90;999.90;;;14.00;99.20;;;;;;5059632;28;20079;-66
2023/05/09 08:29:18;;;;;;;1999.90;999.90;;;14.00;99.30;;;;;;5062222;28;20434;-69
2023/05/09 08:31:46;;;;;;;1999.90;999.90;;;13.90;99.40;;;;;;5063737;28;20372;-67
2023/05/09 08:34:13;;;;;;;1999.90;999.90;;;13.90;99.70;;;;;;5058584;28;20033;-69
2023/05/09 08:36:40;;;;;;;1999.90;999.90;;;13.80;99.90;;;;;;5062823;28;20030;-68
2023/05/09 08:39:08;;;;;;;1999.90;999.90;;;13.70;99.90;;;;;;5058161;28;20444;-69
2023/05/09 08:41:36;;;;;;;1999.90;999.90;;;13.70;99.90;;;;;;5058549;28;20036;-69
2023/05/09 08:44:04;;;;;;;1999.90;999.90;;;13.60;99.90;;;;;;5057256;28;20506;-69
2023/05/09 08:46:36;;;;;;;1999.90;999.90;;;13.50;99.90;;;;;;5058068;28;20517;-69
2023/05/09 08:49:08;;;;;;;1999.90;999.90;;;13.50;99.90;;;;;;5057838;28;20192;-69
2023/05/09 08:51:37;;;;;;;1999.90;999.90;;;13.40;99.90;;;;;;5058873;28;20028;-69
2023/05/09 08:54:12;;;;;;;1999.90;999.90;;;13.30;99.90;;;;;;5056579;28;20033;-67
2023/05/09 08:56:40;;;;;;;1999.90;999.90;;;13.30;99.90;;;;;;5062033;28;20044;-67
2023/05/09 09:00:27;;;;;;;1999.90;999.90;;;13.20;99.90;;;;;;5109411;27;20817;-67
2023/05/09 09:02:56;;;;;;;1999.90;999.90;;;13.10;99.90;;;;;;5112105;28;20032;-68
2023/05/09 09:05:25;;;;;;;1999.90;999.90;;;13.10;99.90;;;;;;5096752;28;20032;-67
2023/05/09 09:07:53;;;;;;;1999.90;999.90;;;13.00;99.90;;;;;;5089445;28;20396;-67
2023/05/09 09:10:24;;;;;;;1999.90;999.90;;;13.00;99.90;;;;;;5107646;28;20039;-71
2023/05/09 09:12:55;;;;;;;1999.90;999.90;;;12.90;99.90;;;;;;5097505;28;20027;-69
2023/05/09 09:15:25;;;;;;;1999.90;999.90;;;12.90;99.90;;;;;;5098589;28;20043;-67
2023/05/09 09:17:57;;;;;;;1999.90;999.90;;;12.80;99.90;;;;;;5108427;28;20104;-69
2023/05/09 09:20:27;;;;;;;1999.90;999.90;;;12.80;99.90;;;;;;5099602;28;20032;-68
2023/05/09 09:23:03;;;;;;;1999.90;999.90;;;12.70;99.90;;;;;;5102441;28;20032;-66
2023/05/09 09:25:30;;;;;;;1999.90;999.90;;;12.60;99.90;;;;;;5098868;28;20134;-69
2023/05/09 09:27:58;;;;;;;1999.90;999.90;;;12.50;99.90;;;;;;5104909;28;20024;-68
2023/05/09 09:30:25;;;;;;;1999.90;999.90;;;12.50;99.90;;;;;;5103466;28;20473;-68
2023/05/09 09:32:52;;;;;;;1999.90;999.90;;;12.40;99.90;;;;;;5106793;28;20135;-67
2023/05/09 09:35:20;;;;;;;1999.90;999.90;;;12.40;99.90;;;;;;5109097;28;20024;-67
2023/05/09 09:37:47;;;;;;;1999.90;999.90;;;12.30;99.90;;;;;;5100399;28;20107;-66
2023/05/09 09:40:16;;;;;;;1999.90;999.90;;;12.20;99.90;;;;;;5108136;28;20085;-69
2023/05/09 09:42:47;;;;;;;1999.90;999.90;;;12.20;99.90;;;;;;5103006;28;20035;-68
2023/05/09 09:45:19;;;;;;;1999.90;999.90;;;12.10;99.90;;;;;;5104161;28;21614;-70
2023/05/09 09:47:52;;;;;;;1999.90;999.90;;;12.00;99.90;;;;;;5103839;28;20059;-69
2023/05/09 09:50:24;;;;;;;1999.90;999.90;;;11.90;99.90;;;;;;5103552;28;20028;-68
2023/05/09 09:52:56;;;;;;;1999.90;999.90;;;11.80;99.90;;;;;;5108314;28;20031;-68
2023/05/09 09:55:24;;;;;;;1999.90;999.90;;;11.80;99.90;;;;;;5106606;28;20055;-68
2023/05/09 09:57:52;;;;;;;1999.90;999.90;;;11.70;99.90;;;;;;5105131;28;20460;-67
2023/05/09 10:00:30;;;;;;;1999.90;999.90;;;11.70;99.90;;;;;;5109586;28;20054;-71
2023/05/09 10:02:59;;;;;;;1999.90;999.90;;;11.70;99.90;;;;;;5108308;28;20062;-69
2023/05/09 10:05:29;;;;;;;1999.90;999.90;;;11.70;99.90;;;;;;5110597;28;20047;-69
2023/05/09 10:08:06;;;;;;;1999.90;999.90;;;11.70;99.90;;;;;;5102030;28;20052;-68
2023/05/09 10:10:36;;;;;;;1999.90;999.90;;;11.70;99.90;;;;;;5087503;28;20481;-71
2023/05/09 10:13:10;;;;;;;1999.90;999.90;;;11.70;99.90;;;;;;5087398;28;20089;-77
2023/05/09 10:15:39;;;;;;;1999.90;999.90;;;11.70;99.90;;;;;;5082497;28;20061;-68
2023/05/09 10:18:09;;;;;;;1999.90;999.90;;;11.70;99.90;;;;;;5094656;28;20035;-71
2023/05/09 10:20:41;;;;;;;1999.90;999.90;;;11.70;99.90;;;;;;5091377;28;20040;-68
2023/05/09 10:23:10;;;;;;;1999.90;999.90;;;11.70;99.90;;;;;;5083835;28;20025;-68
2023/05/09 10:25:46;;;;;;;1999.90;999.90;;;11.70;99.90;;;;;;5077305;28;20072;-69
2023/05/09 10:28:17;;;;;;;1999.90;999.90;;;11.70;99.90;;;;;;5083498;28;20034;-68
2023/05/09 10:30:50;;;;;;;1999.90;999.90;;;11.70;99.90;;;;;;5086891;28;20027;-68
2023/05/09 10:33:23;;;;;;;1999.90;999.90;;;11.70;99.90;;;;;;5085616;28;20032;-70
2023/05/09 10:35:53;;;;;;;1999.90;999.90;;;11.70;99.90;;;;;;5085871;28;20136;-69
2023/05/09 10:38:23;;;;;;;1999.90;999.90;;;11.80;99.90;;;;;;5091516;28;20067;-68
2023/05/09 10:40:52;;;;;;;1999.90;999.90;;;11.80;99.90;;;;;;5079536;28;20040;-68
2023/05/09 10:43:22;;;;;;;1999.90;999.90;;;11.90;99.90;;;;;;5085430;28;20035;-69
2023/05/09 10:45:50;;;;;;;1999.90;999.90;;;11.90;99.90;;;;;;5087422;28;20044;-70
2023/05/09 10:48:18;;;;;;;1999.90;999.90;;;11.90;99.90;;;;;;5090954;28;20067;-68
2023/05/09 10:50:46;;;;;;;1999.90;999.90;;;12.00;99.90;;;;;;5075609;28;20040;-68
2023/05/09 10:53:15;;;;;;;1999.90;999.90;;;12.10;99.90;;;;;;5078815;28;20040;-69
2023/05/09 10:56:01;;;;;;;1999.90;999.90;;;12.20;99.90;;;;;;5082838;28;20127;-68
2023/05/09 10:58:35;;;;;;;1999.90;999.90;;;12.30;99.90;;;;;;5088638;28;20033;-68
2023/05/09 11:01:03;;;;;;;1999.90;999.90;;;12.30;99.90;;;;;;5078100;28;20521;-68
2023/05/09 11:03:51;;;;;;;1999.90;999.90;;;12.30;99.90;;;;;;5079916;28;20113;-69
2023/05/09 11:06:50;;;;;;;1999.90;999.90;;;12.30;99.90;;;;;;5089289;28;20043;-70
2023/05/09 11:09:40;;;;;;;1999.90;999.90;;;12.20;99.90;;;;;;5085202;28;20024;-69
2023/05/09 11:12:12;;;;;;;1999.90;999.90;;;12.10;99.90;;;;;;5091416;28;20552;-69
2023/05/09 11:14:43;;;;;;;1999.90;999.90;;;12.00;99.90;;;;;;5087925;28;20020;-69
2023/05/09 11:17:23;;;;;;;1999.90;999.90;;;11.90;99.90;;;;;;5092629;28;20020;-69
2023/05/09 11:19:51;;;;;;;1999.90;999.90;;;11.90;99.90;;;;;;5085952;28;20513;-71
2023/05/09 11:22:26;;;;;;;1999.90;999.90;;;11.90;99.90;;;;;;5089594;28;20178;-69
2023/05/09 11:25:00;;;;;;;1999.90;999.90;;;11.80;99.90;;;;;;5085650;28;20389;-68
2023/05/09 11:27:36;;;;;;;1999.90;999.90;;;11.70;99.90;;;;;;5086652;28;20390;-66
2023/05/09 11:30:06;;;;;;;1999.90;999.90;;;11.70;99.90;;;;;;5091027;28;20024;-67
2023/05/09 11:32:57;;;;;;;1999.90;999.90;;;11.60;99.90;;;;;;5092500;28;20649;-69
2023/05/09 11:35:26;;;;;;;1999.90;999.90;;;11.50;99.90;;;;;;5089378;28;20099;-69
2023/05/09 11:38:02;;;;;;;1999.90;999.90;;;11.50;99.90;;;;;;5097204;28;20020;-68
2023/05/09 11:40:31;;;;;;;1999.90;999.90;;;11.50;99.90;;;;;;5088744;28;20047;-69
2023/05/09 11:42:59;;;;;;;1999.90;999.90;;;11.40;99.90;;;;;;5090687;28;20060;-68
2023/05/09 11:45:32;;;;;;;1999.90;999.90;;;11.40;99.90;;;;;;5082807;28;20114;-68
2023/05/09 11:48:00;;;;;;;1999.90;999.90;;;11.30;99.90;;;;;;5083492;28;20914;-69
2023/05/09 11:50:35;;;;;;;1999.90;999.90;;;11.30;99.90;;;;;;5065039;28;20070;-68
2023/05/09 11:53:02;;;;;;;1999.90;999.90;;;11.20;99.90;;;;;;5094730;28;20074;-69
2023/05/09 11:55:31;;;;;;;1999.90;999.90;;;11.20;99.90;;;;;;5081419;28;20028;-68
2023/05/09 11:57:58;;;;;;;1999.90;999.90;;;11.10;99.90;;;;;;5084341;28;20055;-69
2023/05/09 12:00:26;;;;;;;1999.90;999.90;;;11.10;99.90;;;;;;5088298;28;20493;-68
2023/05/09 12:02:54;;;;;;;1999.90;999.90;;;11.10;99.90;;;;;;5092210;28;20024;-70
2023/05/09 12:05:22;;;;;;;1999.90;999.90;;;11.00;99.90;;;;;;5082323;28;20659;-68
2023/05/09 12:07:51;;;;;;;1999.90;999.90;;;11.00;99.90;;;;;;5085674;28;20035;-66
2023/05/09 12:10:22;;;;;;;1999.90;999.90;;;10.90;99.90;;;;;;5089612;28;20031;-69
2023/05/09 12:12:54;;;;;;;1999.90;999.90;;;11.00;99.90;;;;;;5089649;28;20444;-69
2023/05/09 12:15:21;;;;;;;1999.90;999.90;;;10.90;99.90;;;;;;5084219;28;20121;-68
2023/05/09 12:18:02;;;;;;;1999.90;999.90;;;10.90;99.90;;;;;;5081862;28;20031;-67
2023/05/09 12:20:50;;;;;;;1999.90;999.90;;;10.80;99.90;;;;;;5092207;28;20521;-67
2023/05/09 12:23:17;;;;;;;1999.90;999.90;;;10.80;99.90;;;;;;5086731;28;20047;-67
2023/05/09 12:25:52;;;;;;;1999.90;999.90;;;10.80;99.90;;;;;;5073006;28;20028;-67
2023/05/09 12:28:29;;;;;;;1999.90;999.90;;;10.80;99.90;;;;;;5084389;28;20032;-66
2023/05/09 12:30:57;;;;;;;1999.90;999.90;;;10.80;99.90;;;;;;5084199;28;20024;-68
2023/05/09 12:33:25;;;;;;;1999.90;999.90;;;10.80;99.90;;;;;;5087777;28;20692;-68
2023/05/09 12:36:10;;;;;;;1999.90;999.90;;;10.70;99.90;;;;;;5081969;28;20390;-68
2023/05/09 12:38:37;;;;;;;1999.90;999.90;;;10.70;99.90;;;;;;5073611;28;20846;-68
2023/05/09 12:41:12;;;;;;;1999.90;999.90;;;10.70;99.90;;;;;;5078085;28;20051;-68
2023/05/09 12:43:39;;;;;;;1999.90;999.90;;;10.70;99.90;;;;;;5079805;28;20471;-69
2023/05/09 12:46:07;;;;;;;1999.90;999.90;;;10.70;99.90;;;;;;5090395;28;20028;-68
2023/05/09 12:48:38;;;;;;;1999.90;999.90;;;10.60;99.90;;;;;;5087984;28;20363;-69
2023/05/09 12:51:06;;;;;;;1999.90;999.90;;;10.60;99.90;;;;;;5089597;28;20067;-70
2023/05/09 12:53:39;;;;;;;1999.90;999.90;;;10.60;99.90;;;;;;5088223;28;20413;-69
2023/05/09 12:56:24;;;;;;;1999.90;999.90;;;10.60;99.90;;;;;;5096960;28;20027;-68
2023/05/09 12:58:53;;;;;;;1999.90;999.90;;;10.50;99.90;;;;;;5091073;28;20048;-68
2023/05/09 13:01:26;;;;;;;1999.90;999.90;;;10.50;99.90;;;;;;5090188;28;20032;-69
2023/05/09 13:04:04;;;;;;;1999.90;999.90;;;10.50;99.90;;;;;;5092397;28;20377;-69
2023/05/09 13:06:33;;;;;;;1999.90;999.90;;;10.40;99.90;;;;;;5092615;28;20085;-68
2023/05/09 13:09:04;;;;;;;1999.90;999.90;;;10.40;99.90;;;;;;5071541;28;20481;-70
2023/05/09 13:11:32;;;;;;;1999.90;999.90;;;10.30;99.90;;;;;;5083867;28;20097;-68
2023/05/09 13:14:02;;;;;;;1999.90;999.90;;;10.30;99.90;;;;;;5087901;28;20058;-68
2023/05/09 13:16:32;;;;;;;1999.90;999.90;;;10.30;99.90;;;;;;5085374;28;20032;-69
2023/05/09 13:19:00;;;;;;;1999.90;999.90;;;10.30;99.90;;;;;;5079414;28;20032;-70
2023/05/09 13:21:27;;;;;;;1999.90;999.90;;;10.30;99.90;;;;;;5089310;28;20020;-70
2023/05/09 13:23:55;;;;;;;1999.90;999.90;;;10.20;99.90;;;;;;5092337;28;20037;-69
2023/05/09 13:26:23;;;;;;;1999.90;999.90;;;10.20;99.90;;;;;;5093813;28;20032;-70
2023/05/09 13:28:53;;;;;;;1999.90;999.90;;;10.20;99.90;;;;;;5063677;28;20028;-69
2023/05/09 13:31:21;;;;;;;1999.90;999.90;;;10.20;99.90;;;;;;5089796;28;20034;-69
2023/05/09 13:33:50;;;;;;;1999.90;999.90;;;10.20;99.90;;;;;;5079235;28;20023;-68
2023/05/09 13:36:17;;;;;;;1999.90;999.90;;;10.10;99.90;;;;;;5084832;28;20387;-68
2023/05/09 13:38:48;;;;;;;1999.90;999.90;;;10.10;99.90;;;;;;5084502;28;20032;-68
2023/05/09 13:41:19;;;;;;;1999.90;999.90;;;10.10;99.90;;;;;;5091723;28;20027;-69
2023/05/09 13:43:47;;;;;;;1999.90;999.90;;;10.10;99.90;;;;;;5090139;28;20028;-68
2023/05/09 13:46:14;;;;;;;1999.90;999.90;;;10.10;99.90;;;;;;5096903;28;20035;-68
2023/05/09 13:48:41;;;;;;;1999.90;999.90;;;10.00;99.90;;;;;;5085737;28;20106;-69
2023/05/09 13:51:09;;;;;;;1999.90;999.90;;;10.00;99.90;;;;;;5093585;28;20047;-69
2023/05/09 13:53:37;;;;;;;1999.90;999.90;;;10.00;99.90;;;;;;5090038;28;20040;-70
2023/05/09 13:56:08;;;;;;;1999.90;999.90;;;9.90;99.90;;;;;;5089865;28;20258;-67
2023/05/09 13:58:35;;;;;;;1999.90;999.90;;;9.90;99.90;;;;;;5096977;28;20079;-68
2023/05/09 14:01:03;;;;;;;1999.90;999.90;;;9.80;99.90;;;;;;5094496;28;20034;-68
2023/05/09 14:03:31;;;;;;;1999.90;999.90;;;9.80;99.90;;;;;;5080834;28;20162;-69
2023/05/09 14:05:58;;;;;;;1999.90;999.90;;;9.70;99.90;;;;;;5081891;28;20108;-68
2023/05/09 14:08:26;;;;;;;1999.90;999.90;;;9.60;99.90;;;;;;5082843;28;21019;-68
2023/05/09 14:10:53;;;;;;;1999.90;999.90;;;9.60;99.90;;;;;;5083782;28;20047;-68
2023/05/09 14:13:20;;;;;;;1999.90;999.90;;;9.50;99.90;;;;;;5089920;28;20024;-67
2023/05/09 14:15:57;;;;;;;1999.90;999.90;;;9.50;99.90;;;;;;5088741;28;20494;-68
2023/05/09 14:18:25;;;;;;;1999.90;999.90;;;9.40;99.90;;;;;;5085989;28;20028;-68
2023/05/09 14:20:52;;;;;;;1999.90;999.90;;;9.40;99.90;;;;;;5089825;28;20155;-68
2023/05/09 14:23:19;;;;;;;1999.90;999.90;;;9.40;99.90;;;;;;5095780;28;20099;-68
2023/05/09 14:25:47;;;;;;;1999.90;999.90;;;9.30;99.90;;;;;;5088837;28;20070;-67
2023/05/09 14:28:14;;;;;;;1999.90;999.90;;;9.30;99.90;;;;;;5088029;28;20031;-69
2023/05/09 14:30:42;;;;;;;1999.90;999.90;;;9.20;99.90;;;;;;5094801;28;20043;-68
2023/05/09 14:33:09;;;;;;;1999.90;999.90;;;9.20;99.90;;;;;;5092369;28;20104;-68
2023/05/09 14:35:37;;;;;;;1999.90;999.90;;;9.20;99.90;;;;;;5084123;28;20023;-68
2023/05/09 14:38:04;;;;;;;1999.90;999.90;;;9.10;99.90;;;;;;5091950;28;20021;-67
2023/05/09 14:40:31;;;;;;;1999.90;999.90;;;9.10;99.90;;;;;;5088964;28;20047;-67
2023/05/09 14:43:02;;;;;;;1999.90;999.90;;;9.10;99.90;;;;;;5094292;28;20104;-67
2023/05/09 14:45:33;;;;;;;1999.90;999.90;;;9.20;99.90;;;;;;5084014;28;20084;-68
2023/05/09 14:48:02;;;;;;;1999.90;999.90;;;9.20;99.90;;;;;;5088120;28;20024;-68
2023/05/09 14:50:30;;;;;;;1999.90;999.90;;;9.30;99.90;;;;;;5093353;28;20051;-69
2023/05/09 14:52:58;;;;;;;1999.90;999.90;;;9.30;99.90;;;;;;5080179;28;20028;-68
2023/05/09 14:55:26;;;;;;;1999.90;999.90;;;9.40;99.90;;;;;;5092144;28;20626;-69
2023/05/09 14:57:54;;;;;;;1999.90;999.90;;;9.40;99.90;;;;;;5096964;28;21078;-67
2023/05/09 15:00:22;;;;;;;1999.90;999.90;;;9.40;99.90;;;;;;5093253;28;20055;-68
2023/05/09 15:02:49;;;;;;;1999.90;999.90;;;9.40;99.90;;;;;;5100956;28;20024;-68
2023/05/09 15:05:17;;;;;;;1999.90;999.90;;;9.40;99.90;;;;;;5082569;28;20115;-68
2023/05/09 15:07:44;;;;;;;1999.90;999.90;;;9.40;99.90;;;;;;5085265;28;20031;-69
2023/05/09 15:10:12;;;;;;;1999.90;999.90;;;9.40;99.90;;;;;;5093260;28;20028;-69
2023/05/09 15:12:39;;;;;;;1999.90;999.90;;;9.40;99.90;;;;;;5074878;28;20085;-69
2023/05/09 15:15:22;;;;;;;1999.90;999.90;;;9.40;99.90;;;;;;5084703;28;20033;-70
2023/05/09 15:17:49;;;;;;;1999.90;999.90;;;9.40;99.90;;;;;;5066297;28;20047;-68
2023/05/09 15:20:17;;;;;;;1999.90;999.90;;;9.30;99.90;;;;;;5092334;28;20595;-68
2023/05/09 15:22:49;;;;;;;1999.90;999.90;;;9.30;99.90;;;;;;5093837;28;20074;-68
2023/05/09 15:25:18;;;;;;;1999.90;999.90;;;9.30;99.90;;;;;;5092165;28;20616;-68
2023/05/09 15:27:49;;;;;;;1999.90;999.90;;;9.30;99.90;;;;;;5094046;28;20919;-68
2023/05/09 15:30:16;;;;;;;1999.90;999.90;;;9.30;99.90;;;;;;5074237;28;20028;-68
2023/05/09 15:32:44;;;;;;;1999.90;999.90;;;9.30;99.90;;;;;;5092418;28;20054;-69
2023/05/09 15:35:12;;;;;;;1999.90;999.90;;;9.40;99.90;;;;;;5088645;28;20032;-69
2023/05/09 15:37:40;;;;;;;1999.90;999.90;;;9.50;99.90;;;;;;5090716;28;20390;-68
2023/05/09 15:40:08;;;;;;;1999.90;999.90;;;9.60;99.90;;;;;;5089429;28;20069;-68
2023/05/09 15:42:37;;;;;;;1999.90;999.90;;;9.60;99.90;;;;;;5090118;28;20024;-68
2023/05/09 15:45:05;;;;;;;1999.90;999.90;;;9.60;99.90;;;;;;5085396;28;20051;-68
2023/05/09 15:47:32;;;;;;;1999.90;999.90;;;9.70;99.90;;;;;;5091604;28;20027;-68
2023/05/09 15:50:00;;;;;;;1999.90;999.90;;;9.70;99.90;;;;;;5079847;28;20031;-68
2023/05/09 15:52:28;;;;;;;1999.90;999.90;;;9.70;99.90;;;;;;5086254;28;20028;-67
2023/05/09 15:54:55;;;;;;;1999.90;999.90;;;9.70;99.90;;;;;;5086844;28;20034;-68
2023/05/09 15:57:23;;;;;;;1999.90;999.90;;;9.60;99.90;;;;;;5090141;28;20093;-68
2023/05/09 15:59:54;;;;;;;1999.90;999.90;;;9.50;99.90;;;;;;5088959;28;20055;-68
2023/05/09 16:02:21;;;;;;;1999.90;999.90;;;9.40;99.90;;;;;;5098672;28;20493;-68
2023/05/09 16:04:48;;;;;;;1999.90;999.90;;;9.30;99.90;;;;;;5091336;28;20113;-68
2023/05/09 16:07:18;;;;;;;1999.90;999.90;;;9.20;99.90;;;;;;5094340;28;20353;-68
2023/05/09 16:09:46;;;;;;;1999.90;999.90;;;9.20;99.90;;;;;;5090661;28;20032;-68
2023/05/09 16:12:13;;;;;;;1999.90;999.90;;;9.20;99.90;;;;;;5100258;28;20027;-68
2023/05/09 16:14:41;;;;;;;1999.90;999.90;;;9.20;99.90;;;;;;5076083;28;20386;-68
2023/05/09 16:17:08;;;;;;;1999.90;999.90;;;9.10;99.90;;;;;;5092863;28;20466;-68
2023/05/09 16:19:35;;;;;;;1999.90;999.90;;;9.20;99.90;;;;;;5090671;28;20036;-68
2023/05/09 16:22:03;;;;;;;1999.90;999.90;;;9.10;99.90;;;;;;5093515;28;20027;-68
2023/05/09 16:24:30;;;;;;;1999.90;999.90;;;9.10;99.90;;;;;;5094020;28;20024;-68
2023/05/09 16:26:58;;;;;;;1999.90;999.90;;;9.10;99.90;;;;;;5090006;28;20099;-68
2023/05/09 16:29:27;;;;;;;1999.90;999.90;;;9.10;99.90;;;;;;5086244;28;20039;-68
2023/05/09 16:31:54;;;;;;;1999.90;999.90;;;9.00;99.90;;;;;;5096324;28;20024;-68
2023/05/09 16:34:22;;;;;;;1999.90;999.90;;;9.00;99.90;;;;;;5085708;28;20139;-68
2023/05/09 16:36:51;;;;;;;1999.90;999.90;;;8.90;99.90;;;;;;5093512;28;20063;-67
2023/05/09 16:39:18;;;;;;;1999.90;999.90;;;8.90;99.90;;;;;;5091097;28;20035;-68
2023/05/09 16:41:45;;;;;;;1999.90;999.90;;;8.80;99.90;;;;;;5094632;28;20038;-68
2023/05/09 16:44:14;;;;;;;1999.90;999.90;;;8.80;99.90;;;;;;5093015;28;20032;-67
2023/05/09 16:46:41;;;;;;;1999.90;999.90;;;8.80;99.90;;;;;;5098463;28;20028;-67
2023/05/09 16:49:09;;;;;;;1999.90;999.90;;;8.80;99.90;;;;;;5093543;28;20093;-67
2023/05/09 16:51:37;;;;;;;1999.90;999.90;;;8.80;99.90;;;;;;5092312;28;20035;-68
2023/05/09 16:54:04;;;;;;;1999.90;999.90;;;8.80;99.90;;;;;;5095039;28;20040;-66
2023/05/09 16:56:32;;;;;;;1999.90;999.90;;;8.80;99.90;;;;;;5094492;28;20146;-67
2023/05/09 16:58:59;;;;;;;1999.90;999.90;;;8.70;99.90;;;;;;5071388;28;20504;-67
2023/05/09 17:01:27;;;;;;;1999.90;999.90;;;8.70;99.90;;;;;;5095344;28;20114;-67
2023/05/09 17:03:55;;;;;;;1999.90;999.90;;;8.60;99.90;;;;;;5098967;28;20024;-67
2023/05/09 17:06:22;;;;;;;1999.90;999.90;;;8.50;99.90;;;;;;5092113;28;20107;-67
2023/05/09 17:08:50;;;;;;;1999.90;999.90;;;8.50;99.90;;;;;;5095368;28;20063;-67
2023/05/09 17:11:17;;;;;;;1999.90;999.90;;;8.40;99.90;;;;;;5079398;28;20035;-66
2023/05/09 17:13:45;;;;;;;1999.90;999.90;;;8.30;99.90;;;;;;5090170;28;20491;-67
2023/05/09 17:16:12;;;;;;;1999.90;999.90;;;8.30;99.90;;;;;;5088615;28;20090;-66
2023/05/09 17:18:44;;;;;;;1999.90;999.90;;;8.20;99.90;;;;;;5090871;28;20059;-67
2023/05/09 17:21:13;;;;;;;1999.90;999.90;;;8.20;99.90;;;;;;5093725;28;20398;-67
2023/05/09 17:23:41;;;;;;;1999.90;999.90;;;8.20;99.90;;;;;;5091184;28;20028;-67
2023/05/09 17:26:08;;;;;;;1999.90;999.90;;;8.20;99.90;;;;;;5091785;28;20027;-67
2023/05/09 17:28:35;;;;;;;1999.90;999.90;;;8.30;99.90;;;;;;5094393;28;20024;-67
2023/05/09 17:31:03;;;;;;;1999.90;999.90;;;8.30;99.90;;;;;;5090435;28;20089;-68
2023/05/09 17:33:30;;;;;;;1999.90;999.90;;;8.30;99.90;;;;;;5094239;28;20032;-67
2023/05/09 17:35:58;;;;;;;1999.90;999.90;;;8.30;99.90;;;;;;5086108;28;20027;-66
2023/05/09 17:38:26;;;;;;;1999.90;999.90;;;8.30;99.90;;;;;;5091642;28;20250;-68
2023/05/09 17:40:53;;;;;;;1999.90;999.90;;;8.30;99.90;;;;;;5086033;28;20023;-67
2023/05/09 17:43:21;;;;;;;1999.90;999.90;;;8.30;99.90;;;;;;5094696;28;20027;-67
2023/05/09 17:45:49;;;;;;;1999.90;999.90;;;8.30;99.90;;;;;;5087307;28;20061;-67
2023/05/09 17:48:17;;;;;;;1999.90;999.90;;;8.30;99.90;;;;;;5096674;28;20043;-66
2023/05/09 17:50:45;;;;;;;1999.90;999.90;;;8.20;99.90;;;;;;5103343;28;20367;-67
2023/05/09 17:53:12;;;;;;;1999.90;999.90;;;8.20;99.90;;;;;;5107598;28;20023;-67
2023/05/09 17:55:41;;;;;;;1999.90;999.90;;;8.20;99.90;;;;;;5088901;28;20031;-67
2023/05/09 17:58:08;;;;;;;1999.90;999.90;;;8.20;99.90;;;;;;5094844;28;20020;-68
2023/05/09 18:00:36;;;;;;;1999.90;999.90;;;8.20;99.90;;;;;;5097530;28;20044;-67
2023/05/09 18:03:04;;;;;;;1999.90;999.90;;;8.20;99.90;;;;;;5094188;28;20027;-68
2023/05/09 18:05:31;;;;;;;1999.90;999.90;;;8.30;99.90;;;;;;5092191;28;20042;-68
2023/05/09 18:07:59;;;;;;;1999.90;999.90;;;8.30;99.90;;;;;;5102586;28;20022;-67
2023/05/09 18:10:28;;;;;;;1999.90;999.90;;;8.40;99.90;;;;;;5095949;28;20100;-67
2023/05/09 18:12:55;;;;;;;1999.90;999.90;;;8.40;99.90;;;;;;5097737;28;20051;-68
2023/05/09 18:15:23;;;;;;;1999.90;999.90;;;8.40;99.90;;;;;;5095302;28;20040;-67
2023/05/09 18:17:53;;;;;;;1999.90;999.90;;;8.40;99.90;;;;;;5102364;28;20431;-67
2023/05/09 18:20:20;;;;;;;1999.90;999.90;;;8.40;99.90;;;;;;5094779;28;20565;-68
2023/05/09 18:22:49;;;;;;;1999.90;999.90;;;8.40;99.90;;;;;;5101053;28;20049;-67
2023/05/09 18:25:17;;;;;;;1999.90;999.90;;;8.30;99.90;;;;;;5089044;28;20034;-67
2023/05/09 18:27:44;;;;;;;1999.90;999.90;;;8.30;99.90;;;;;;5094905;28;20036;-67
2023/05/09 18:30:12;;;;;;;1999.90;999.90;;;8.30;99.90;;;;;;5084296;28;20023;-67
2023/05/09 18:32:40;;;;;;;1999.90;999.90;;;8.20;99.90;;;;;;5091735;28;20107;-67
2023/05/09 18:35:09;;;;;;;1999.90;999.90;;;8.10;99.90;;;;;;5095021;28;20030;-66
2023/05/09 18:37:36;;;;;;;1999.90;999.90;;;8.00;99.90;;;;;;5096716;28;20034;-67
2023/05/09 18:40:04;;;;;;;1999.90;999.90;;;8.00;99.90;;;;;;5092288;28;20489;-67
2023/05/09 18:42:31;;;;;;;1999.90;999.90;;;7.90;99.90;;;;;;5095994;28;20046;-66
2023/05/09 18:44:59;;;;;;;1999.90;999.90;;;7.90;99.90;;;;;;5091263;28;20079;-67
2023/05/09 18:47:27;;;;;;;1999.90;999.90;;;7.80;99.90;;;;;;5099590;28;20099;-67
2023/05/09 18:49:54;;;;;;;1999.90;999.90;;;7.70;99.90;;;;;;5094244;28;20031;-67
2023/05/09 18:52:21;;;;;;;1999.90;999.90;;;7.70;99.90;;;;;;5103942;28;20489;-67
2023/05/09 18:54:48;;;;;;;1999.90;999.90;;;7.60;99.90;;;;;;5097743;28;20032;-67
2023/05/09 18:57:18;;;;;;;1999.90;999.90;;;7.50;99.90;;;;;;5092067;28;20029;-67
2023/05/09 18:59:45;;;;;;;1999.90;999.90;;;7.40;99.90;;;;;;5091007;28;20055;-67
2023/05/09 19:02:12;;;;;;;1999.90;999.90;;;7.30;99.90;;;;;;5109044;28;20552;-67
2023/05/09 19:04:40;;;;;;;1999.90;999.90;;;7.30;99.90;;;;;;5097496;28;20035;-67
2023/05/09 19:07:08;;;;;;;1999.90;999.90;;;7.30;99.90;;;;;;5091182;28;20032;-67
2023/05/09 19:09:36;;;;;;;1999.90;999.90;;;7.20;99.90;;;;;;5089223;28;20028;-67
2023/05/09 19:12:04;;;;;;;1999.90;999.90;;;7.10;99.90;;;;;;5088050;28;20016;-67
2023/05/09 19:14:31;;;;;;;1999.90;999.90;;;7.00;99.90;;;;;;5090841;28;20106;-68
2023/05/09 19:16:58;;;;;;;1999.90;999.90;;;7.00;99.90;;;;;;5093121;28;20027;-67
2023/05/09 19:19:26;;;;;;;1999.90;999.90;;;7.00;99.90;;;;;;5087120;28;20040;-67
2023/05/09 19:21:55;;;;;;;1999.90;999.90;;;6.90;99.90;;;;;;5092635;28;20016;-67
2023/05/09 19:24:22;;;;;;;1999.90;999.90;;;6.90;99.90;;;;;;5088592;28;20039;-67
2023/05/09 19:26:49;;;;;;;1999.90;999.90;;;6.90;99.90;;;;;;5103381;28;20023;-67
2023/05/09 19:29:17;;;;;;;1999.90;999.90;;;6.90;99.90;;;;;;5098286;28;20036;-67
2023/05/09 19:31:45;;;;;;;1999.90;999.90;;;6.80;99.90;;;;;;5098944;28;20088;-67
2023/05/09 19:34:12;;;;;;;1999.90;999.90;;;6.80;99.90;;;;;;5086961;28;22366;-67
2023/05/09 19:36:40;;;;;;;1999.90;999.90;;;6.70;99.90;;;;;;5097760;28;20054;-67
2023/05/09 19:39:07;;;;;;;1999.90;999.90;;;6.70;99.90;;;;;;5085900;28;20031;-67
2023/05/09 19:41:35;;;;;;;1999.90;999.90;;;6.80;99.90;;;;;;5095455;28;20436;-67
2023/05/09 19:44:02;;;;;;;1999.90;999.90;;;6.80;99.90;;;;;;5091513;28;20031;-67
2023/05/09 19:46:30;;;;;;;1999.90;999.90;;;6.70;99.90;;;;;;5077563;28;20035;-67
2023/05/09 19:48:57;;;;;;;1999.90;999.90;;;6.70;99.90;;;;;;5096221;28;20036;-67
2023/05/09 19:51:24;;;;;;;1999.90;999.90;;;6.70;99.90;;;;;;5100166;28;20031;-69
2023/05/09 19:53:52;;;;;;;1999.90;999.90;;;6.70;99.90;;;;;;5095691;28;20070;-67
2023/05/09 19:56:22;;;;;;;1999.90;999.90;;;6.70;99.90;;;;;;5097238;28;20039;-68
2023/05/09 19:58:49;;;;;;;1999.90;999.90;;;6.60;99.90;;;;;;5089638;28;20148;-66
2023/05/09 20:01:18;;;;;;;1999.90;999.90;;;6.60;99.90;;;;;;5074389;28;20501;-67
2023/05/09 20:03:48;;;;;;;1999.90;999.90;;;6.60;99.90;;;;;;5097590;28;20017;-67
2023/05/09 20:06:17;;;;;;;1999.90;999.90;;;6.50;99.90;;;;;;5096006;28;20051;-69
2023/05/09 20:08:45;;;;;;;1999.90;999.90;;;6.60;99.90;;;;;;5097668;28;20420;-68